sensor_id;sensor_type;location;lat;lon;timestamp;pressure;altitude;pressure_sealevel;temperature;humidity
48644;BME280;34928;37.302;-121.984;2023-05-20T00:08:38;101072.0;;;30.06;27.47
48644;BME280;34928;37.302;-121.984;2023-05-20T00:18:43;101076.0;;;30.64;27.17
48644;BME280;34928;37.302;-121.984;2023-05-20T00:28:47;101081.0;;;30.62;27.30
48644;BME280;34928;37.302;-121.984;2023-05-20T00:38:53;101080.0;;;31.68;26.22
48644;BME280;34928;37.302;-121.984;2023-05-20T00:48:58;101081.0;;;31.93;25.95
48644;BME280;34928;37.302;-121.984;2023-05-20T00:59:03;101084.0;;;27.05;29.37
48644;BME280;34928;37.302;-121.984;2023-05-20T01:09:07;101076.0;;;26.80;29.39
48644;BME280;34928;37.302;-121.984;2023-05-20T01:19:21;101075.0;;;26.80;29.77
48644;BME280;34928;37.302;-121.984;2023-05-20T01:29:27;101090.0;;;25.68;31.10
48644;BME280;34928;37.302;-121.984;2023-05-20T01:39:35;101083.0;;;26.09;31.08
48644;BME280;34928;37.302;-121.984;2023-05-20T01:49:42;101095.0;;;25.98;31.74
48644;BME280;34928;37.302;-121.984;2023-05-20T01:59:48;101101.0;;;27.30;29.73
48644;BME280;34928;37.302;-121.984;2023-05-20T02:09:52;101106.0;;;25.55;31.86
48644;BME280;34928;37.302;-121.984;2023-05-20T02:19:57;101108.0;;;28.81;28.69
48644;BME280;34928;37.302;-121.984;2023-05-20T02:30:03;101109.0;;;29.05;28.05
48644;BME280;34928;37.302;-121.984;2023-05-20T02:40:09;101109.0;;;29.32;27.79
48644;BME280;34928;37.302;-121.984;2023-05-20T02:50:12;101116.0;;;28.97;28.24
48644;BME280;34928;37.302;-121.984;2023-05-20T03:00:18;101121.0;;;28.90;28.61
48644;BME280;34928;37.302;-121.984;2023-05-20T03:10:22;101142.0;;;28.59;28.45
48644;BME280;34928;37.302;-121.984;2023-05-20T03:20:28;101145.0;;;30.10;26.58
48644;BME280;34928;37.302;-121.984;2023-05-20T03:30:33;101157.0;;;29.73;27.18
48644;BME280;34928;37.302;-121.984;2023-05-20T03:40:38;101161.0;;;30.43;26.81
48644;BME280;34928;37.302;-121.984;2023-05-20T03:50:43;101176.0;;;30.40;26.42
48644;BME280;34928;37.302;-121.984;2023-05-20T04:00:48;101182.0;;;30.03;25.19
48644;BME280;34928;37.302;-121.984;2023-05-20T04:10:56;101195.0;;;29.49;25.75
48644;BME280;34928;37.302;-121.984;2023-05-20T04:21:03;101212.0;;;28.47;26.59
48644;BME280;34928;37.302;-121.984;2023-05-20T04:31:08;101225.0;;;28.29;27.10
48644;BME280;34928;37.302;-121.984;2023-05-20T04:41:13;101235.0;;;27.59;27.75
48644;BME280;34928;37.302;-121.984;2023-05-20T04:51:18;101245.0;;;27.95;27.66
48644;BME280;34928;37.302;-121.984;2023-05-20T05:01:28;101257.0;;;27.48;28.24
48644;BME280;34928;37.302;-121.984;2023-05-20T05:11:33;101252.0;;;25.27;31.19
48644;BME280;34928;37.302;-121.984;2023-05-20T05:21:38;101244.0;;;26.31;29.83
48644;BME280;34928;37.302;-121.984;2023-05-20T05:31:42;101246.0;;;26.96;29.48
48644;BME280;34928;37.302;-121.984;2023-05-20T05:41:48;101246.0;;;27.15;29.07
48644;BME280;34928;37.302;-121.984;2023-05-20T05:51:53;101253.0;;;26.93;28.65
48644;BME280;34928;37.302;-121.984;2023-05-20T06:01:57;101240.0;;;28.35;27.31
48644;BME280;34928;37.302;-121.984;2023-05-20T06:12:04;101229.0;;;27.72;27.99
48644;BME280;34928;37.302;-121.984;2023-05-20T06:22:09;101226.0;;;27.34;28.33
48644;BME280;34928;37.302;-121.984;2023-05-20T06:32:12;101226.0;;;27.81;28.10
48644;BME280;34928;37.302;-121.984;2023-05-20T06:42:18;101225.0;;;27.56;28.53
48644;BME280;34928;37.302;-121.984;2023-05-20T06:52:22;101228.0;;;27.55;28.89
48644;BME280;34928;37.302;-121.984;2023-05-20T07:02:27;101239.0;;;27.14;28.58
48644;BME280;34928;37.302;-121.984;2023-05-20T07:12:34;101243.0;;;27.24;28.60
48644;BME280;34928;37.302;-121.984;2023-05-20T07:22:38;101238.0;;;27.30;28.42
48644;BME280;34928;37.302;-121.984;2023-05-20T07:32:43;101235.0;;;26.62;28.75
48644;BME280;34928;37.302;-121.984;2023-05-20T07:42:47;101235.0;;;27.63;28.22
48644;BME280;34928;37.302;-121.984;2023-05-20T07:52:52;101238.0;;;27.28;28.19
48644;BME280;34928;37.302;-121.984;2023-05-20T08:02:58;101230.0;;;26.94;28.42
48644;BME280;34928;37.302;-121.984;2023-05-20T08:13:02;101228.0;;;27.56;27.89
48644;BME280;34928;37.302;-121.984;2023-05-20T08:23:08;101223.0;;;27.37;28.17
48644;BME280;34928;37.302;-121.984;2023-05-20T08:33:12;101220.0;;;27.48;28.58
48644;BME280;34928;37.302;-121.984;2023-05-20T08:43:18;101217.0;;;28.16;27.58
48644;BME280;34928;37.302;-121.984;2023-05-20T08:53:23;101215.0;;;28.25;27.53
48644;BME280;34928;37.302;-121.984;2023-05-20T09:03:28;101219.0;;;28.23;27.79
48644;BME280;34928;37.302;-121.984;2023-05-20T09:13:33;101216.0;;;28.47;27.63
48644;BME280;34928;37.302;-121.984;2023-05-20T09:23:37;101212.0;;;27.92;28.18
48644;BME280;34928;37.302;-121.984;2023-05-20T09:33:42;101215.0;;;27.53;28.77
48644;BME280;34928;37.302;-121.984;2023-05-20T09:43:48;101217.0;;;27.36;29.02
48644;BME280;34928;37.302;-121.984;2023-05-20T09:53:54;101210.0;;;27.13;29.35
48644;BME280;34928;37.302;-121.984;2023-05-20T10:04:04;101216.0;;;27.81;28.21
48644;BME280;34928;37.302;-121.984;2023-05-20T10:14:27;101212.0;;;28.01;27.92
48644;BME280;34928;37.302;-121.984;2023-05-20T10:24:34;101216.0;;;27.39;29.13
48644;BME280;34928;37.302;-121.984;2023-05-20T10:34:46;101208.0;;;27.65;28.31
48644;BME280;34928;37.302;-121.984;2023-05-20T10:44:52;101221.0;;;27.48;28.19
48644;BME280;34928;37.302;-121.984;2023-05-20T10:54:59;101220.0;;;27.60;28.61
48644;BME280;34928;37.302;-121.984;2023-05-20T11:05:02;101222.0;;;27.02;28.73
48644;BME280;34928;37.302;-121.984;2023-05-20T11:15:12;101222.0;;;26.12;29.87
48644;BME280;34928;37.302;-121.984;2023-05-20T11:25:18;101228.0;;;26.22;29.84
48644;BME280;34928;37.302;-121.984;2023-05-20T11:35:27;101232.0;;;26.90;29.51
48644;BME280;34928;37.302;-121.984;2023-05-20T11:45:39;101230.0;;;27.20;28.82
48644;BME280;34928;37.302;-121.984;2023-05-20T11:55:47;101244.0;;;27.04;28.63
48644;BME280;34928;37.302;-121.984;2023-05-20T12:05:53;101246.0;;;27.41;28.30
48644;BME280;34928;37.302;-121.984;2023-05-20T12:15:57;101242.0;;;27.44;27.99
48644;BME280;34928;37.302;-121.984;2023-05-20T12:26:04;101234.0;;;25.92;29.96
48644;BME280;34928;37.302;-121.984;2023-05-20T12:36:08;101231.0;;;26.40;29.36
48644;BME280;34928;37.302;-121.984;2023-05-20T12:46:13;101232.0;;;26.27;29.68
48644;BME280;34928;37.302;-121.984;2023-05-20T12:56:17;101250.0;;;26.53;29.12
48644;BME280;34928;37.302;-121.984;2023-05-20T13:06:23;101259.0;;;26.79;28.44
48644;BME280;34928;37.302;-121.984;2023-05-20T13:16:28;101272.0;;;27.16;28.33
48644;BME280;34928;37.302;-121.984;2023-05-20T13:26:32;101269.0;;;26.80;29.03
48644;BME280;34928;37.302;-121.984;2023-05-20T13:36:38;101280.0;;;26.57;28.89
48644;BME280;34928;37.302;-121.984;2023-05-20T13:46:43;101292.0;;;26.63;29.02
48644;BME280;34928;37.302;-121.984;2023-05-20T13:56:48;101303.0;;;26.40;28.91
48644;BME280;34928;37.302;-121.984;2023-05-20T14:06:52;101308.0;;;26.34;29.29
48644;BME280;34928;37.302;-121.984;2023-05-20T14:16:58;101320.0;;;26.54;28.70
48644;BME280;34928;37.302;-121.984;2023-05-20T14:27:02;101332.0;;;27.22;27.82
48644;BME280;34928;37.302;-121.984;2023-05-20T14:37:08;101337.0;;;26.77;28.38
48644;BME280;34928;37.302;-121.984;2023-05-20T14:47:13;101338.0;;;27.08;28.44
48644;BME280;34928;37.302;-121.984;2023-05-20T14:57:19;101351.0;;;26.73;29.28
48644;BME280;34928;37.302;-121.984;2023-05-20T15:07:22;101358.0;;;26.96;28.54
48644;BME280;34928;37.302;-121.984;2023-05-20T15:17:27;101363.0;;;26.98;28.86
48644;BME280;34928;37.302;-121.984;2023-05-20T15:27:33;101365.0;;;27.32;28.33
48644;BME280;34928;37.302;-121.984;2023-05-20T15:37:38;101373.0;;;26.93;29.27
48644;BME280;34928;37.302;-121.984;2023-05-20T15:47:43;101376.0;;;27.33;28.50
48644;BME280;34928;37.302;-121.984;2023-05-20T15:57:49;101375.0;;;27.77;27.94
48644;BME280;34928;37.302;-121.984;2023-05-20T16:07:53;101363.0;;;27.07;28.41
48644;BME280;34928;37.302;-121.984;2023-05-20T16:17:58;101361.0;;;27.24;28.39
48644;BME280;34928;37.302;-121.984;2023-05-20T16:28:03;101359.0;;;27.36;30.39
48644;BME280;34928;37.302;-121.984;2023-05-20T16:38:08;101367.0;;;27.81;28.46
48644;BME280;34928;37.302;-121.984;2023-05-20T16:48:13;101349.0;;;27.27;29.60
48644;BME280;34928;37.302;-121.984;2023-05-20T16:58:18;101344.0;;;26.99;30.62
48644;BME280;34928;37.302;-121.984;2023-05-20T17:08:23;101352.0;;;27.42;29.18
48644;BME280;34928;37.302;-121.984;2023-05-20T17:18:28;101352.0;;;27.97;29.62
48644;BME280;34928;37.302;-121.984;2023-05-20T17:28:32;101352.0;;;28.61;28.60
48644;BME280;34928;37.302;-121.984;2023-05-20T17:38:39;101355.0;;;28.91;27.92
48644;BME280;34928;37.302;-121.984;2023-05-20T17:48:44;101360.0;;;28.99;27.81
48644;BME280;34928;37.302;-121.984;2023-05-20T17:58:48;101370.0;;;29.18;27.65
48644;BME280;34928;37.302;-121.984;2023-05-20T18:08:52;101376.0;;;29.41;27.52
48644;BME280;34928;37.302;-121.984;2023-05-20T18:18:57;101365.0;;;29.25;27.69
48644;BME280;34928;37.302;-121.984;2023-05-20T18:29:02;101352.0;;;29.46;27.24
48644;BME280;34928;37.302;-121.984;2023-05-20T18:39:08;101349.0;;;29.74;27.28
48644;BME280;34928;37.302;-121.984;2023-05-20T18:49:13;101350.0;;;28.19;28.98
48644;BME280;34928;37.302;-121.984;2023-05-20T18:59:17;101345.0;;;29.34;28.49
48644;BME280;34928;37.302;-121.984;2023-05-20T19:09:22;101340.0;;;28.72;28.98
48644;BME280;34928;37.302;-121.984;2023-05-20T19:19:27;101339.0;;;29.64;28.67
48644;BME280;34928;37.302;-121.984;2023-05-20T19:29:33;101337.0;;;29.75;28.10
48644;BME280;34928;37.302;-121.984;2023-05-20T19:39:42;101339.0;;;29.57;27.91
48644;BME280;34928;37.302;-121.984;2023-05-20T19:49:47;101333.0;;;30.30;27.35
48644;BME280;34928;37.302;-121.984;2023-05-20T19:59:53;101335.0;;;30.15;27.30
48644;BME280;34928;37.302;-121.984;2023-05-20T20:09:57;101325.0;;;29.89;27.52
48644;BME280;34928;37.302;-121.984;2023-05-20T20:20:09;101320.0;;;29.93;26.60
48644;BME280;34928;37.302;-121.984;2023-05-20T20:30:13;101316.0;;;29.99;27.17
48644;BME280;34928;37.302;-121.984;2023-05-20T20:40:18;101316.0;;;29.97;26.84
48644;BME280;34928;37.302;-121.984;2023-05-20T20:50:23;101315.0;;;29.11;27.29
48644;BME280;34928;37.302;-121.984;2023-05-20T21:00:28;101309.0;;;29.23;27.75
48644;BME280;34928;37.302;-121.984;2023-05-20T21:10:33;101297.0;;;29.91;25.23
48644;BME280;34928;37.302;-121.984;2023-05-20T21:20:37;101302.0;;;29.61;26.51
48644;BME280;34928;37.302;-121.984;2023-05-20T21:30:42;101287.0;;;29.78;24.71
48644;BME280;34928;37.302;-121.984;2023-05-20T21:40:48;101282.0;;;29.68;25.52
48644;BME280;34928;37.302;-121.984;2023-05-20T21:50:58;101277.0;;;29.67;24.30
48644;BME280;34928;37.302;-121.984;2023-05-20T22:01:06;101275.0;;;28.93;25.43
48644;BME280;34928;37.302;-121.984;2023-05-20T22:11:13;101274.0;;;29.24;24.25
48644;BME280;34928;37.302;-121.984;2023-05-20T22:21:23;101264.0;;;29.19;25.56
48644;BME280;34928;37.302;-121.984;2023-05-20T22:31:33;101263.0;;;29.71;25.08
48644;BME280;34928;37.302;-121.984;2023-05-20T22:41:38;101259.0;;;29.67;25.47
48644;BME280;34928;37.302;-121.984;2023-05-20T22:51:43;101247.0;;;29.77;25.92
48644;BME280;34928;37.302;-121.984;2023-05-20T23:01:47;101235.0;;;29.93;26.00
48644;BME280;34928;37.302;-121.984;2023-05-20T23:11:53;101210.0;;;30.04;25.59
48644;BME280;34928;37.302;-121.984;2023-05-20T23:21:58;101208.0;;;29.85;25.91
48644;BME280;34928;37.302;-121.984;2023-05-20T23:32:03;101204.0;;;30.96;25.45
48644;BME280;34928;37.302;-121.984;2023-05-20T23:42:07;101201.0;;;30.30;25.73
48644;BME280;34928;37.302;-121.984;2023-05-20T23:52:12;101198.0;;;31.00;25.41
